Time;durP1;ratioP1;P1;durP2;ratioP2;P2;SDS_P1;SDS_P2;PMS_P1;PMS_P2;Temp;Humidity;BMP_temperature;BMP_pressure;BME280_temperature;BME280_humidity;BME280_pressure;Samples;Min_cycle;Max_cycle;Signal;HPM_P1;HPM_P2
2023/12/25 00:00:51;;;;;;;4.53;1.00;;;;;;;12.22;83.68;97805.72;4187179;28;20620;-87
2023/12/25 00:02:54;;;;;;;3.60;1.10;;;;;;;12.24;82.83;97796.00;4196945;28;21341;-88
2023/12/25 00:04:57;;;;;;;1.60;0.80;;;;;;;12.27;83.34;97804.44;4195457;28;20655;-87
2023/12/25 00:07:01;;;;;;;1.87;1.00;;;;;;;12.29;83.84;97809.53;4202420;28;20635;-88
2023/12/25 00:09:04;;;;;;;3.00;0.93;;;;;;;12.33;82.87;97792.66;4200157;28;20626;-87
2023/12/25 00:11:23;;;;;;;3.93;1.37;;;;;;;12.30;82.22;97805.97;4199134;28;20633;-88
2023/12/25 00:13:26;;;;;;;2.63;1.00;;;;;;;12.31;81.88;97802.38;4189466;28;20647;-88
2023/12/25 00:15:29;;;;;;;3.30;1.20;;;;;;;12.35;83.45;97803.81;4186376;28;20619;-87
2023/12/25 00:17:33;;;;;;;2.40;1.10;;;;;;;12.36;81.58;97798.47;4198548;28;21207;-87
2023/12/25 00:19:52;;;;;;;1.80;0.90;;;;;;;12.35;82.94;97795.97;4196661;28;20650;-87
2023/12/25 00:21:54;;;;;;;2.63;0.93;;;;;;;12.31;82.32;97794.53;4201579;28;20650;-88
2023/12/25 00:23:59;;;;;;;2.90;1.23;;;;;;;12.27;82.41;97798.38;4205781;28;20729;-88
2023/12/25 00:26:03;;;;;;;2.10;1.00;;;;;;;12.27;82.45;97796.56;4216593;28;20990;-88
2023/12/25 00:28:06;;;;;;;3.90;1.30;;;;;;;12.23;81.59;97796.13;4201772;28;20632;-88
2023/12/25 00:30:21;;;;;;;2.67;1.20;;;;;;;12.21;82.82;97801.47;4197906;28;20623;-88
2023/12/25 00:32:23;;;;;;;3.07;1.30;;;;;;;12.21;82.86;97795.41;4197560;28;20710;-87
2023/12/25 00:34:27;;;;;;;2.17;0.97;;;;;;;12.23;81.83;97800.38;4177979;28;20656;-87
2023/12/25 00:36:30;;;;;;;1.73;0.93;;;;;;;12.18;82.23;97791.25;4201680;28;20670;-87
2023/12/25 00:38:34;;;;;;;2.33;1.00;;;;;;;12.20;82.16;97799.81;4188340;28;20667;-88
2023/12/25 00:40:53;;;;;;;2.73;1.23;;;;;;;12.20;82.98;97793.75;4206632;28;20619;-86
2023/12/25 00:42:57;;;;;;;3.63;1.13;;;;;;;12.18;81.63;97791.25;4205498;28;20659;-86
2023/12/25 00:45:00;;;;;;;2.77;1.10;;;;;;;12.20;82.43;97791.97;4187004;28;20636;-86
2023/12/25 00:47:04;;;;;;;1.97;1.20;;;;;;;12.22;81.83;97797.88;4187730;28;21205;-86
2023/12/25 00:49:19;;;;;;;2.40;1.00;;;;;;;12.22;81.45;97787.44;4185839;28;20677;-85
2023/12/25 00:51:25;;;;;;;2.00;0.93;;;;;;;12.21;80.49;97792.78;4187409;28;20663;-85
2023/12/25 00:53:28;;;;;;;3.80;1.57;;;;;;;12.21;81.55;97792.78;4189894;28;20619;-86
2023/12/25 00:55:32;;;;;;;2.60;1.10;;;;;;;12.22;82.42;97787.44;4200245;28;20706;-85
2023/12/25 00:57:35;;;;;;;2.97;1.10;;;;;;;12.23;81.09;97783.88;4186471;28;20738;-85
2023/12/25 00:59:39;;;;;;;2.63;1.50;;;;;;;12.25;82.59;97785.41;4184142;28;21214;-86
2023/12/25 01:01:42;;;;;;;2.20;0.90;;;;;;;12.29;82.76;97783.38;4200855;28;21274;-86
2023/12/25 01:03:45;;;;;;;1.90;1.00;;;;;;;12.31;81.43;97778.84;4199392;28;20649;-86
2023/12/25 01:05:48;;;;;;;2.27;1.40;;;;;;;12.31;80.64;97771.84;4188629;28;20613;-86
2023/12/25 01:07:51;;;;;;;2.50;1.03;;;;;;;12.31;80.99;97777.09;4185663;28;20623;-86
2023/12/25 01:09:55;;;;;;;5.77;1.70;;;;;;;12.31;81.09;97771.00;4184696;28;20635;-86
2023/12/25 01:11:58;;;;;;;2.93;1.00;;;;;;;12.34;80.08;97776.00;4198721;28;20634;-86
2023/12/25 01:14:02;;;;;;;2.30;1.10;;;;;;;12.35;80.80;97768.03;4187319;28;20648;-85
2023/12/25 01:16:06;;;;;;;3.57;1.10;;;;;;;12.36;80.96;97768.88;4203561;28;20667;-86
2023/12/25 01:18:09;;;;;;;3.40;2.07;;;;;;;12.36;81.11;97768.88;4201661;28;21106;-85
2023/12/25 01:20:13;;;;;;;2.43;1.07;;;;;;;12.36;80.29;97780.16;4201425;28;20639;-86
2023/12/25 01:22:15;;;;;;;2.50;1.20;;;;;;;12.36;81.05;97782.78;4191943;28;20701;-86
2023/12/25 01:24:18;;;;;;;2.80;1.40;;;;;;;12.39;81.09;97786.94;4206591;28;20626;-86
2023/12/25 01:26:21;;;;;;;2.30;1.20;;;;;;;12.39;81.21;97787.75;4191358;28;20634;-86
2023/12/25 01:28:25;;;;;;;2.30;1.23;;;;;;;12.39;79.98;97786.94;4198534;28;20741;-86
2023/12/25 01:30:29;;;;;;;2.17;1.27;;;;;;;12.39;80.35;97777.28;4189928;28;21212;-86
2023/12/25 01:32:32;;;;;;;3.50;1.37;;;;;;;12.40;79.66;97785.97;4202447;28;20723;-86
2023/12/25 01:34:36;;;;;;;3.63;1.33;;;;;;;12.39;80.85;97785.13;4204702;28;20627;-86
2023/12/25 01:36:40;;;;;;;2.73;1.13;;;;;;;12.37;79.95;97792.28;4191346;28;20785;-86
2023/12/25 01:38:43;;;;;;;2.63;1.20;;;;;;;12.39;80.73;97785.13;4188713;28;20719;-86
2023/12/25 01:40:46;;;;;;;4.27;1.20;;;;;;;12.41;80.60;97785.84;4190801;28;20631;-86
2023/12/25 01:42:48;;;;;;;2.73;1.20;;;;;;;12.41;79.99;97783.22;4190927;28;21286;-86
2023/12/25 01:44:51;;;;;;;2.33;1.07;;;;;;;12.40;80.35;97781.59;4186146;28;20715;-85
2023/12/25 01:46:56;;;;;;;3.93;1.20;;;;;;;12.38;80.15;97773.00;4204381;28;20633;-86
2023/12/25 01:48:59;;;;;;;3.10;1.23;;;;;;;12.36;79.38;97774.94;4204067;28;20621;-86
2023/12/25 01:51:04;;;;;;;3.10;1.30;;;;;;;12.35;79.31;97775.88;4188491;28;20628;-86
2023/12/25 01:53:06;;;;;;;2.40;0.90;;;;;;;12.33;80.13;97777.78;4201726;28;20738;-86
2023/12/25 01:55:09;;;;;;;1.70;1.00;;;;;;;12.27;79.89;97767.81;4205742;28;20696;-86
2023/12/25 01:57:13;;;;;;;2.10;1.20;;;;;;;12.19;80.64;97771.16;4190705;28;21258;-86
2023/12/25 01:59:23;;;;;;;2.80;1.00;;;;;;;12.13;80.59;97769.84;4187539;28;21223;-86
2023/12/25 02:01:26;;;;;;;4.47;1.30;;;;;;;12.13;80.25;97767.25;4197564;28;20717;-86
2023/12/25 02:03:31;;;;;;;3.77;1.20;;;;;;;12.04;80.62;97775.00;4187506;28;21082;-86
2023/12/25 02:05:33;;;;;;;2.00;1.00;;;;;;;12.00;80.44;97784.06;4191172;28;20673;-86
2023/12/25 02:07:39;;;;;;;2.20;1.10;;;;;;;11.94;81.48;97785.34;4190005;28;21207;-86
2023/12/25 02:09:42;;;;;;;2.10;0.97;;;;;;;11.85;81.74;97782.63;4188137;28;20655;-86
2023/12/25 02:11:45;;;;;;;3.03;1.10;;;;;;;11.91;81.37;97775.13;4200645;28;21041;-86
2023/12/25 02:13:49;;;;;;;1.80;1.00;;;;;;;11.90;80.06;97781.31;4192674;28;20655;-86
2023/12/25 02:15:52;;;;;;;3.83;1.07;;;;;;;11.94;81.12;97779.31;4201725;28;20683;-86
2023/12/25 02:17:55;;;;;;;3.87;1.10;;;;;;;11.94;80.82;97787.13;4202330;28;20655;-86
2023/12/25 02:20:01;;;;;;;1.80;1.00;;;;;;;11.94;80.82;97793.19;4192174;28;21222;-86
2023/12/25 02:22:06;;;;;;;3.00;1.40;;;;;;;11.97;81.37;97798.19;4205256;28;20614;-85
2023/12/25 02:24:31;;;;;;;2.90;1.00;;;;;;;12.01;80.73;97799.59;4202708;28;20755;-86
2023/12/25 02:26:37;;;;;;;3.80;1.30;;;;;;;12.03;79.18;97804.72;4181925;28;20623;-86
2023/12/25 02:28:41;;;;;;;2.23;1.30;;;;;;;12.05;80.40;97801.00;4200487;28;20631;-85
2023/12/25 02:30:45;;;;;;;4.07;1.00;;;;;;;12.06;80.61;97800.06;4203339;28;20734;-86
2023/12/25 02:32:49;;;;;;;3.70;1.00;;;;;;;12.05;79.91;97801.00;4189774;28;20657;-85
2023/12/25 02:34:54;;;;;;;1.73;0.90;;;;;;;12.02;79.13;97788.19;4202824;28;20623;-86
2023/12/25 02:37:13;;;;;;;4.33;1.00;;;;;;;12.05;80.13;97794.97;4187840;28;20789;-86
2023/12/25 02:39:17;;;;;;;2.63;1.27;;;;;;;12.08;80.48;97794.72;4202972;28;20714;-86
2023/12/25 02:41:19;;;;;;;2.70;0.97;;;;;;;12.03;80.96;97799.50;4188174;28;20632;-86
2023/12/25 02:43:24;;;;;;;2.70;1.20;;;;;;;12.03;79.19;97797.69;4190776;28;21207;-86
2023/12/25 02:45:27;;;;;;;3.20;1.10;;;;;;;12.09;78.87;97796.38;4205048;28;20780;-86
2023/12/25 02:47:30;;;;;;;2.40;1.17;;;;;;;12.06;79.72;97794.84;4189847;28;21102;-86
2023/12/25 02:49:45;;;;;;;2.40;1.20;;;;;;;12.02;79.69;97800.44;4198691;28;21282;-85
2023/12/25 02:51:49;;;;;;;2.30;1.07;;;;;;;12.03;78.95;97786.41;4203328;28;20614;-86
2023/12/25 02:53:52;;;;;;;2.73;1.07;;;;;;;12.04;78.46;97799.38;4201475;28;20713;-86
2023/12/25 02:55:55;;;;;;;2.90;1.20;;;;;;;12.02;78.37;97784.75;4199276;28;20650;-86
2023/12/25 02:57:57;;;;;;;3.03;1.10;;;;;;;12.04;79.18;97781.06;4202660;28;21049;-85
2023/12/25 03:00:02;;;;;;;2.73;1.00;;;;;;;12.01;79.96;97786.53;4183950;28;20645;-86
2023/12/25 03:02:05;;;;;;;11.33;1.20;;;;;;;11.98;79.71;97773.72;4203920;28;20681;-86
2023/12/25 03:04:07;;;;;;;2.17;1.10;;;;;;;11.99;78.33;97780.59;4202010;28;20655;-86
2023/12/25 03:06:11;;;;;;;2.23;1.03;;;;;;;11.95;78.90;97776.56;4183921;28;20626;-86
2023/12/25 03:08:14;;;;;;;2.20;1.13;;;;;;;11.95;79.09;97775.72;4189707;28;20631;-86
2023/12/25 03:10:17;;;;;;;2.37;0.90;;;;;;;11.91;80.49;97775.13;4188566;28;21079;-86
2023/12/25 03:12:20;;;;;;;2.10;0.90;;;;;;;11.82;81.03;97768.00;4198831;28;20624;-86
2023/12/25 03:14:23;;;;;;;2.27;1.00;;;;;;;11.87;79.90;97773.69;4195097;28;20723;-86
2023/12/25 03:16:28;;;;;;;2.13;1.00;;;;;;;11.87;81.07;97775.50;4188874;28;20620;-86
2023/12/25 03:18:31;;;;;;;3.33;1.40;;;;;;;11.88;80.96;97782.41;4198687;28;20615;-86
2023/12/25 03:20:35;;;;;;;2.63;1.30;;;;;;;11.90;79.20;97781.31;4191798;28;21084;-86
2023/12/25 03:22:38;;;;;;;2.57;1.20;;;;;;;11.93;79.62;97781.06;4199875;28;20622;-86
2023/12/25 03:24:40;;;;;;;2.03;1.07;;;;;;;11.97;81.24;97787.72;4201800;28;20759;-86
2023/12/25 03:26:43;;;;;;;2.20;1.00;;;;;;;12.01;81.10;97783.94;4202856;28;20622;-86
2023/12/25 03:28:47;;;;;;;2.47;1.03;;;;;;;12.03;80.45;97784.63;4185383;28;20632;-86
2023/12/25 03:30:50;;;;;;;2.67;1.07;;;;;;;12.05;79.85;97784.50;4182945;28;20612;-86
2023/12/25 03:32:55;;;;;;;4.03;1.10;;;;;;;12.08;80.11;97787.69;4204125;28;20615;-86
2023/12/25 03:35:16;;;;;;;2.83;1.30;;;;;;;12.13;80.85;97782.09;4200331;28;21263;-86
2023/12/25 03:37:20;;;;;;;2.27;1.00;;;;;;;12.12;79.59;97786.50;4185023;28;20708;-86
2023/12/25 03:39:23;;;;;;;1.80;0.80;;;;;;;12.13;81.46;97782.09;4186365;28;21227;-86
2023/12/25 03:41:27;;;;;;;2.43;1.00;;;;;;;12.16;79.29;97784.47;4201036;28;20622;-86
2023/12/25 03:43:30;;;;;;;2.50;1.30;;;;;;;12.17;80.63;97789.59;4186268;28;20636;-86
2023/12/25 03:45:33;;;;;;;3.50;1.10;;;;;;;12.17;80.06;97781.75;4200251;28;20635;-86
2023/12/25 03:47:36;;;;;;;2.97;1.23;;;;;;;12.19;79.57;97787.66;4190439;28;20963;-86
2023/12/25 03:49:41;;;;;;;2.50;1.20;;;;;;;12.20;80.38;97781.50;4189205;28;22103;-86
2023/12/25 03:51:44;;;;;;;2.20;1.20;;;;;;;12.23;80.11;97780.44;4203598;28;20619;-86
2023/12/25 03:53:48;;;;;;;4.07;1.13;;;;;;;12.21;80.38;97792.78;4199233;28;20718;-86
2023/12/25 03:55:51;;;;;;;2.87;1.33;;;;;;;12.18;78.14;97785.19;4206097;28;20619;-86
2023/12/25 03:57:54;;;;;;;3.07;1.00;;;;;;;12.19;78.92;97790.28;4190576;28;20652;-86
2023/12/25 03:59:57;;;;;;;2.77;1.00;;;;;;;12.16;79.92;97785.31;4184731;28;20608;-86
2023/12/25 04:02:01;;;;;;;2.53;1.10;;;;;;;12.19;79.69;97782.44;4183004;28;20723;-86
2023/12/25 04:04:05;;;;;;;2.20;1.20;;;;;;;12.22;79.36;97784.00;4201837;28;20653;-86
2023/12/25 04:06:09;;;;;;;2.00;1.00;;;;;;;12.23;80.04;97780.44;4212737;28;20623;-86
2023/12/25 04:08:13;;;;;;;3.20;1.10;;;;;;;12.22;79.29;97781.38;4185193;28;21018;-86
2023/12/25 04:10:17;;;;;;;2.63;0.87;;;;;;;12.24;78.51;97790.78;4199230;28;20619;-86
2023/12/25 04:12:20;;;;;;;1.80;0.83;;;;;;;12.25;80.26;97787.19;4185246;28;20707;-86
2023/12/25 04:14:25;;;;;;;2.33;0.93;;;;;;;12.28;78.36;97792.16;4179358;28;20616;-86
2023/12/25 04:16:29;;;;;;;2.60;0.90;;;;;;;12.29;79.72;97791.22;4186779;28;20620;-86
2023/12/25 04:18:32;;;;;;;2.40;1.00;;;;;;;12.28;79.66;97794.78;4199334;28;20624;-86
2023/12/25 04:20:34;;;;;;;4.50;1.07;;;;;;;12.28;79.86;97789.56;4200358;28;21247;-87
2023/12/25 04:22:39;;;;;;;3.20;1.20;;;;;;;12.28;78.16;97797.41;4196210;28;20635;-86
2023/12/25 04:24:41;;;;;;;2.43;1.00;;;;;;;12.29;77.87;97784.19;4185255;28;21538;-86
2023/12/25 04:26:44;;;;;;;1.70;0.93;;;;;;;12.29;78.69;97789.44;4190485;28;20670;-86
2023/12/25 04:28:48;;;;;;;3.93;1.23;;;;;;;12.27;77.48;97793.16;4204031;28;20618;-85
2023/12/25 04:30:52;;;;;;;1.80;0.90;;;;;;;12.26;77.07;97805.38;4199746;28;21025;-85
2023/12/25 04:32:55;;;;;;;1.70;0.90;;;;;;;12.28;78.26;97802.63;4208106;28;20623;-86
2023/12/25 04:34:58;;;;;;;2.80;1.17;;;;;;;12.27;78.83;97793.16;4201813;28;20623;-85
2023/12/25 04:37:01;;;;;;;1.90;0.93;;;;;;;12.27;77.68;97793.16;4196230;28;20631;-86
2023/12/25 04:39:15;;;;;;;2.70;1.10;;;;;;;12.26;76.68;97791.47;4215011;28;21220;-85
2023/12/25 04:41:21;;;;;;;2.70;1.13;;;;;;;12.29;77.57;97796.47;4201804;28;20644;-86
2023/12/25 04:43:25;;;;;;;2.07;1.20;;;;;;;12.23;76.29;97790.91;4190111;28;21037;-86
2023/12/25 04:45:28;;;;;;;2.40;1.10;;;;;;;12.22;77.40;97787.44;4186849;28;20769;-85
2023/12/25 04:47:31;;;;;;;2.13;0.90;;;;;;;12.22;76.37;97779.59;4181356;28;20616;-86
2023/12/25 04:49:35;;;;;;;1.97;0.90;;;;;;;12.19;78.07;97779.81;4196939;28;20627;-85
2023/12/25 04:51:39;;;;;;;4.20;1.10;;;;;;;12.11;76.49;97774.38;4216372;28;20633;-86
2023/12/25 04:53:42;;;;;;;1.93;1.03;;;;;;;12.08;78.05;97773.81;4206025;28;20673;-86
2023/12/25 04:55:46;;;;;;;2.30;0.97;;;;;;;12.06;78.35;97776.53;4202690;28;20628;-86
2023/12/25 04:57:50;;;;;;;2.10;1.00;;;;;;;12.06;78.22;97776.53;4191632;28;21213;-86
2023/12/25 04:59:56;;;;;;;3.07;1.03;;;;;;;12.05;78.08;97779.28;4212641;28;20629;-86
2023/12/25 05:02:00;;;;;;;5.13;1.10;;;;;;;11.97;77.06;97772.03;4202123;28;20635;-86
2023/12/25 05:04:18;;;;;;;2.00;1.20;;;;;;;11.92;77.64;97773.34;4185920;28;21322;-86
2023/12/25 05:06:20;;;;;;;2.60;1.10;;;;;;;11.95;76.44;97780.94;4215960;28;21454;-86
2023/12/25 05:08:24;;;;;;;2.10;1.00;;;;;;;11.96;77.50;97777.38;4209936;28;20623;-86
2023/12/25 05:10:59;;;;;;;2.43;1.00;;;;;;;11.96;78.12;97793.06;4192639;28;20620;-86
2023/12/25 05:13:02;;;;;;;2.70;1.00;;;;;;;12.00;77.17;97795.31;4206945;28;20653;-86
2023/12/25 05:15:06;;;;;;;2.93;1.20;;;;;;;12.01;76.45;97789.16;4206985;28;20659;-86
2023/12/25 05:17:09;;;;;;;2.90;1.10;;;;;;;12.05;75.92;97793.16;4197628;28;20623;-85
2023/12/25 05:19:14;;;;;;;3.13;1.03;;;;;;;12.08;77.12;97798.16;4190981;28;20624;-84
2023/12/25 05:21:18;;;;;;;2.30;1.03;;;;;;;12.12;78.25;97789.13;4206613;28;20971;-87
2023/12/25 05:23:21;;;;;;;2.40;1.20;;;;;;;12.13;76.21;97789.94;4218239;28;20633;-88
2023/12/25 05:25:24;;;;;;;2.50;1.10;;;;;;;12.17;77.40;97786.97;4217507;28;20654;-86
2023/12/25 05:27:29;;;;;;;2.07;1.03;;;;;;;12.18;78.21;97795.63;4195844;28;21400;-88
2023/12/25 05:29:32;;;;;;;3.20;1.00;;;;;;;12.18;77.20;97793.88;4205789;28;20651;-87
2023/12/25 05:31:35;;;;;;;1.80;0.90;;;;;;;12.21;78.91;97795.41;4191855;28;20615;-87
2023/12/25 05:33:38;;;;;;;3.80;1.03;;;;;;;12.16;76.62;97784.47;4189650;28;20611;-87
2023/12/25 05:35:41;;;;;;;1.97;0.90;;;;;;;12.16;76.74;97782.69;4197992;28;20651;-87
2023/12/25 05:37:44;;;;;;;2.13;0.87;;;;;;;12.16;76.38;97768.78;4191266;28;20655;-87
2023/12/25 05:39:48;;;;;;;2.70;1.00;;;;;;;12.14;77.72;97775.94;4204464;28;21214;-88
2023/12/25 05:41:51;;;;;;;1.90;0.90;;;;;;;12.13;77.35;97772.47;4209862;28;20642;-88
2023/12/25 05:43:55;;;;;;;3.63;0.90;;;;;;;12.14;78.80;97768.09;4204315;28;20722;-87
2023/12/25 05:45:59;;;;;;;2.70;0.87;;;;;;;12.07;79.25;97764.28;4208363;28;20739;-87
2023/12/25 05:48:02;;;;;;;1.80;0.90;;;;;;;11.95;79.37;97766.13;4194423;28;20658;-87
2023/12/25 05:50:07;;;;;;;1.90;1.10;;;;;;;11.98;79.28;97765.03;4206759;28;20679;-88
2023/12/25 05:52:10;;;;;;;2.87;1.00;;;;;;;11.95;77.10;97763.50;4206583;28;20626;-88
2023/12/25 05:54:13;;;;;;;2.00;0.90;;;;;;;11.88;79.21;97770.16;4183947;28;21192;-88
2023/12/25 05:56:16;;;;;;;1.80;0.90;;;;;;;11.79;78.31;97775.28;4189425;28;20611;-87
2023/12/25 05:58:19;;;;;;;1.90;0.90;;;;;;;11.79;79.15;97772.66;4200348;28;20629;-89
2023/12/25 06:00:24;;;;;;;2.00;1.00;;;;;;;11.76;77.90;97772.91;4202958;28;20623;-89
2023/12/25 06:02:28;;;;;;;2.40;0.93;;;;;;;11.73;78.07;97762.69;4207877;28;20619;-89
2023/12/25 06:04:30;;;;;;;2.90;1.50;;;;;;;11.68;79.75;97772.69;4201954;28;21053;-89
2023/12/25 06:06:33;;;;;;;4.47;1.27;;;;;;;11.62;79.45;97770.53;4207468;28;20743;-89
2023/12/25 06:08:36;;;;;;;3.53;1.00;;;;;;;11.62;79.89;97785.34;4204677;28;20623;-89
2023/12/25 06:10:39;;;;;;;1.80;1.00;;;;;;;11.64;79.86;97786.91;4200780;28;20685;-89
2023/12/25 06:12:43;;;;;;;2.57;1.00;;;;;;;11.64;78.76;97786.09;4205642;28;20665;-89
2023/12/25 06:14:46;;;;;;;1.50;0.80;;;;;;;11.63;80.80;97784.41;4210885;28;20615;-89
2023/12/25 06:16:49;;;;;;;1.50;0.93;;;;;;;11.60;78.66;97777.63;4205618;28;21287;-89
2023/12/25 06:18:53;;;;;;;2.20;1.00;;;;;;;11.66;78.73;97785.00;4202813;28;21297;-89
2023/12/25 06:20:56;;;;;;;1.77;0.90;;;;;;;11.68;78.78;97790.97;4203767;28;20636;-88
2023/12/25 06:23:00;;;;;;;2.73;1.03;;;;;;;11.69;79.13;97784.75;4186396;28;20973;-89
2023/12/25 06:25:04;;;;;;;2.20;1.00;;;;;;;11.69;79.08;97791.78;4203385;28;20619;-89
2023/12/25 06:27:07;;;;;;;1.93;1.03;;;;;;;11.74;80.19;97794.84;4196784;28;20627;-89
2023/12/25 06:29:12;;;;;;;4.00;1.20;;;;;;;11.78;79.42;97794.50;4192531;28;20636;-89
2023/12/25 06:31:15;;;;;;;2.33;1.10;;;;;;;11.80;78.85;97796.06;4203252;28;22217;-86
2023/12/25 06:33:19;;;;;;;2.70;0.80;;;;;;;11.82;79.84;97796.75;4217324;28;20610;-86
2023/12/25 06:35:23;;;;;;;2.03;0.93;;;;;;;11.81;80.89;97800.31;4201077;28;21169;-86
2023/12/25 06:37:25;;;;;;;3.43;0.90;;;;;;;11.80;80.41;97805.66;4206087;28;20634;-86
2023/12/25 06:39:28;;;;;;;2.00;1.07;;;;;;;11.71;77.97;97798.53;4188949;28;21001;-86
2023/12/25 06:41:32;;;;;;;2.87;1.07;;;;;;;11.65;78.96;97792.94;4206440;28;20684;-86
2023/12/25 06:43:35;;;;;;;2.83;1.40;;;;;;;11.66;78.61;97792.00;4206507;28;20620;-86
2023/12/25 06:45:37;;;;;;;1.87;1.10;;;;;;;11.64;79.40;97791.31;4201164;28;21249;-86
2023/12/25 06:47:40;;;;;;;1.70;0.90;;;;;;;11.59;78.47;97793.44;4187003;28;21275;-86
2023/12/25 06:49:44;;;;;;;2.37;1.00;;;;;;;11.53;79.51;97789.53;4205711;28;20987;-86
2023/12/25 06:51:48;;;;;;;2.30;1.00;;;;;;;11.45;77.55;97798.84;4201571;28;20708;-86
2023/12/25 06:53:50;;;;;;;1.83;0.80;;;;;;;11.41;78.32;97797.41;4204136;28;20627;-86
2023/12/25 06:55:53;;;;;;;2.07;1.00;;;;;;;11.39;78.09;97799.31;4190212;28;20628;-86
2023/12/25 06:57:56;;;;;;;1.60;0.90;;;;;;;11.36;78.24;97799.56;4204464;28;20662;-86
2023/12/25 06:59:59;;;;;;;2.03;1.00;;;;;;;11.26;78.91;97801.22;4191667;28;20616;-86
2023/12/25 07:02:02;;;;;;;1.70;0.80;;;;;;;11.29;79.01;97806.19;4196935;28;20697;-86
2023/12/25 07:04:05;;;;;;;3.00;1.00;;;;;;;11.30;78.25;97800.00;4189148;28;20734;-86
2023/12/25 07:06:22;;;;;;;1.90;1.10;;;;;;;11.33;77.77;97805.81;4198293;28;20659;-86
2023/12/25 07:08:27;;;;;;;1.83;1.10;;;;;;;11.31;78.71;97801.69;4215879;28;20614;-86
2023/12/25 07:10:31;;;;;;;2.73;0.90;;;;;;;11.24;79.54;97800.47;4190059;28;20608;-86
2023/12/25 07:12:33;;;;;;;1.67;0.90;;;;;;;11.25;80.00;97809.16;4189931;28;20619;-86
2023/12/25 07:14:46;;;;;;;2.00;0.93;;;;;;;11.25;79.18;97807.38;4185647;28;21252;-86
2023/12/25 07:16:49;;;;;;;4.13;1.20;;;;;;;11.25;78.61;97814.38;4185436;28;20623;-86
2023/12/25 07:18:52;;;;;;;2.23;1.20;;;;;;;11.16;79.25;97807.25;4197713;28;20635;-84
2023/12/25 07:20:56;;;;;;;4.83;3.00;;;;;;;11.10;80.35;97808.53;4184621;28;20620;-86
2023/12/25 07:23:00;;;;;;;2.80;2.07;;;;;;;11.05;80.38;97818.47;4197575;28;20662;-85
2023/12/25 07:25:06;;;;;;;2.87;1.60;;;;;;;11.04;81.04;97822.03;4188856;28;20636;-85
2023/12/25 07:27:09;;;;;;;2.43;1.37;;;;;;;11.06;79.77;97816.69;4204780;28;21083;-85
2023/12/25 07:29:12;;;;;;;2.67;1.40;;;;;;;10.96;80.38;97811.34;4198791;28;20974;-86
2023/12/25 07:31:16;;;;;;;2.33;1.13;;;;;;;10.92;79.82;97819.50;4195576;28;20717;-85
2023/12/25 07:33:18;;;;;;;2.27;1.10;;;;;;;10.89;80.60;97824.94;4183071;28;20731;-85
2023/12/25 07:35:21;;;;;;;2.03;1.00;;;;;;;10.83;79.34;97830.59;4179263;28;21213;-86
2023/12/25 07:37:24;;;;;;;2.27;1.13;;;;;;;10.85;80.60;97824.34;4197157;28;20689;-86
2023/12/25 07:39:29;;;;;;;1.90;1.10;;;;;;;10.87;79.36;97832.06;4197812;28;20639;-88
2023/12/25 07:41:33;;;;;;;2.30;1.10;;;;;;;10.86;80.54;97830.38;4201583;28;21023;-88
2023/12/25 07:43:37;;;;;;;2.10;1.03;;;;;;;10.84;80.27;97840.94;4200157;28;20627;-89
2023/12/25 07:45:39;;;;;;;2.70;1.27;;;;;;;10.86;78.66;97840.81;4188347;28;20720;-88
2023/12/25 07:47:42;;;;;;;2.47;1.47;;;;;;;10.86;79.04;97840.81;4199441;28;21349;-88
2023/12/25 07:49:44;;;;;;;1.87;1.13;;;;;;;10.80;79.88;97842.09;4197304;28;20631;-88
2023/12/25 07:51:48;;;;;;;2.33;1.40;;;;;;;10.81;78.72;97845.56;4203247;28;20742;-88
2023/12/25 07:53:50;;;;;;;2.33;1.30;;;;;;;10.80;79.55;97836.06;4201313;28;20627;-88
2023/12/25 07:55:54;;;;;;;2.20;1.10;;;;;;;10.83;78.62;97841.03;4199818;28;20635;-86
2023/12/25 07:57:59;;;;;;;2.10;1.10;;;;;;;10.85;79.02;97844.38;4203049;28;20964;-88
2023/12/25 08:00:03;;;;;;;2.17;1.10;;;;;;;10.84;77.39;97847.94;4201542;28;20677;-86
2023/12/25 08:02:13;;;;;;;1.80;1.00;;;;;;;10.82;78.78;97850.66;4201947;28;20209;-88
2023/12/25 08:04:23;;;;;;;1.80;0.90;;;;;;;10.85;78.52;97860.88;4189689;28;21239;-88
2023/12/25 08:06:26;;;;;;;1.90;1.17;;;;;;;10.85;78.13;97871.31;4185889;28;20648;-88
2023/12/25 08:08:29;;;;;;;1.87;0.93;;;;;;;10.89;77.14;97862.28;4189133;28;21027;-89
2023/12/25 08:10:32;;;;;;;1.87;1.27;;;;;;;10.90;78.20;97860.53;4201347;28;20627;-89
2023/12/25 08:12:37;;;;;;;2.23;1.10;;;;;;;10.87;76.72;97874.63;4201107;28;20640;-89
2023/12/25 08:14:52;;;;;;;4.00;1.20;;;;;;;10.86;76.53;97862.50;4182229;28;20632;-89
2023/12/25 08:16:56;;;;;;;2.60;1.17;;;;;;;10.87;77.33;97864.19;4204612;28;20637;-89
2023/12/25 08:18:59;;;;;;;1.97;1.20;;;;;;;10.87;76.71;97874.63;4200730;28;20628;-88
2023/12/25 08:21:04;;;;;;;3.37;1.37;;;;;;;10.93;77.17;97868.09;4216914;28;20630;-89
2023/12/25 08:23:07;;;;;;;3.17;1.20;;;;;;;10.93;77.55;97879.41;4183031;28;20620;-89
2023/12/25 08:25:18;;;;;;;1.80;1.10;;;;;;;10.94;78.04;97885.44;4202989;28;20627;-91
2023/12/25 08:27:21;;;;;;;1.60;1.00;;;;;;;10.93;77.42;97895.06;4185311;28;20652;-89
2023/12/25 08:29:29;;;;;;;4.47;1.40;;;;;;;10.97;76.76;97896.47;4201626;28;21234;-89
2023/12/25 08:31:31;;;;;;;1.93;1.13;;;;;;;11.00;78.08;97900.66;4190833;28;20608;-89
2023/12/25 08:33:35;;;;;;;2.30;1.13;;;;;;;10.97;75.94;97890.44;4193048;28;20620;-90
2023/12/25 08:35:38;;;;;;;1.80;1.00;;;;;;;10.99;77.22;97901.56;4206271;28;21257;-90
2023/12/25 08:37:41;;;;;;;2.13;1.20;;;;;;;10.99;76.72;97906.78;4207841;28;20615;-90
2023/12/25 08:39:45;;;;;;;2.50;1.30;;;;;;;11.01;76.21;97908.38;4201622;28;20658;-89
2023/12/25 08:41:48;;;;;;;1.90;1.20;;;;;;;11.01;77.98;97897.94;4188327;28;20661;-90
2023/12/25 08:43:50;;;;;;;1.90;1.00;;;;;;;11.04;76.45;97905.53;4187961;28;20639;-87
2023/12/25 08:45:55;;;;;;;2.20;1.10;;;;;;;11.08;76.91;97903.53;4207593;28;20637;-88
2023/12/25 08:47:58;;;;;;;1.90;1.03;;;;;;;11.10;76.18;97912.91;4206983;28;20749;-87
2023/12/25 08:50:02;;;;;;;1.90;1.00;;;;;;;11.14;76.08;97916.97;4194099;28;20719;-87
2023/12/25 08:52:05;;;;;;;4.50;1.20;;;;;;;11.22;75.74;97921.63;4206450;28;20642;-87
2023/12/25 08:54:14;;;;;;;2.10;1.20;;;;;;;11.29;76.77;97923.69;4202312;28;20635;-90
2023/12/25 08:56:24;;;;;;;1.90;1.10;;;;;;;11.30;76.10;97926.16;4188005;28;20833;-89
2023/12/25 08:58:29;;;;;;;2.63;1.73;;;;;;;11.31;76.61;97927.81;4193003;28;20718;-87
2023/12/25 09:00:32;;;;;;;4.27;1.67;;;;;;;11.30;77.97;97918.31;4206070;28;20705;-88
2023/12/25 09:02:37;;;;;;;2.63;1.70;;;;;;;11.25;76.66;97914.41;4185304;28;20628;-86
2023/12/25 09:04:40;;;;;;;3.10;1.60;;;;;;;11.21;76.53;97920.78;4191239;28;20624;-88
2023/12/25 09:06:44;;;;;;;4.33;2.60;;;;;;;11.20;77.12;97921.75;4187960;28;20625;-85
2023/12/25 09:08:48;;;;;;;2.97;1.40;;;;;;;11.19;76.91;97921.84;4218155;28;20652;-89
2023/12/25 09:10:51;;;;;;;3.50;1.70;;;;;;;11.16;77.61;97909.03;4208598;28;20936;-87
2023/12/25 09:12:54;;;;;;;2.70;1.33;;;;;;;11.13;75.64;97901.44;4207787;28;20645;-88
2023/12/25 09:14:58;;;;;;;2.70;1.30;;;;;;;11.12;75.66;97905.78;4200774;28;20646;-88
2023/12/25 09:17:02;;;;;;;3.00;1.60;;;;;;;11.12;77.03;97916.22;4192993;28;20620;-87
2023/12/25 09:19:10;;;;;;;2.27;1.57;;;;;;;11.11;77.08;97917.19;4193392;28;21462;-89
2023/12/25 09:21:17;;;;;;;2.40;1.33;;;;;;;11.14;75.68;97916.97;4204894;28;20617;-89
2023/12/25 09:23:20;;;;;;;2.57;1.30;;;;;;;11.17;76.18;97921.13;4207110;28;21244;-88
2023/12/25 09:25:23;;;;;;;2.30;1.30;;;;;;;11.14;76.10;97919.59;4209198;28;20619;-87
2023/12/25 09:27:29;;;;;;;2.87;1.50;;;;;;;11.18;77.43;97926.22;4211336;28;20647;-87
2023/12/25 09:29:32;;;;;;;2.70;1.43;;;;;;;11.20;76.96;97936.56;4206310;28;21004;-87
2023/12/25 09:31:35;;;;;;;2.73;1.40;;;;;;;11.16;77.47;97928.13;4206188;28;21286;-87
2023/12/25 09:33:39;;;;;;;3.20;1.20;;;;;;;11.13;77.29;97935.34;4190432;28;20634;-88
2023/12/25 09:35:42;;;;;;;2.00;1.17;;;;;;;11.16;76.72;97935.13;4187639;28;20643;-88
2023/12/25 09:37:46;;;;;;;2.73;1.30;;;;;;;11.17;77.04;97937.63;4203160;28;20614;-88
2023/12/25 09:39:49;;;;;;;2.10;1.13;;;;;;;11.17;77.16;97939.38;4187637;28;21267;-86
2023/12/25 09:41:52;;;;;;;2.77;1.30;;;;;;;11.16;77.18;97938.56;4194693;28;20733;-87
2023/12/25 09:43:57;;;;;;;4.53;1.50;;;;;;;11.17;78.02;97935.03;4199328;28;20629;-86
2023/12/25 09:46:00;;;;;;;2.50;1.17;;;;;;;11.24;78.62;97938.00;4186282;28;20651;-86